Time;durP1;ratioP1;P1;durP2;ratioP2;P2;SDS_P1;SDS_P2;PMS_P1;PMS_P2;Temp;Humidity;BMP_temperature;BMP_pressure;BME280_temperature;BME280_humidity;BME280_pressure;Samples;Min_cycle;Max_cycle;Signal;HPM_P1;HPM_P2
2023/09/26 09:42:09;;;;;;;;;;;;;;;18.34;100.00;101636.53;1812065;79;20101;-69
2023/09/26 09:44:37;;;;;;;;;;;;;;;18.39;100.00;101633.61;1809188;79;20094;-72
2023/09/26 09:47:04;;;;;;;;;;;;;;;18.40;100.00;101633.48;1810641;79;20113;-70
2023/09/26 09:49:36;;;;;;;;;;;;;;;18.43;100.00;101640.35;1807100;79;20713;-70
2023/09/26 09:52:05;;;;;;;;;;;;;;;18.45;100.00;101637.14;1798712;79;20178;-69
2023/09/26 09:54:35;;;;;;;;;;;;;;;18.48;100.00;101643.55;1805584;79;20145;-69
2023/09/26 09:57:05;;;;;;;;;;;;;;;18.46;100.00;101644.12;1815910;79;20153;-72
2023/09/26 09:59:33;;;;;;;;;;;;;;;18.41;100.00;101642.23;1816522;79;20195;-70
2023/09/26 10:02:00;;;;;;;;;;;;;;;18.41;100.00;101640.45;1781500;80;20267;-70
2023/09/26 10:04:46;;;;;;;;;;;;;;;;;;;;;
2023/09/26 10:07:14;;;;;;;;;;;;;;;18.38;100.00;101639.83;1818901;79;20149;-71
2023/09/26 10:09:43;;;;;;;;;;;;;;;18.29;100.00;101634.66;1797247;79;20538;-70
2023/09/26 10:12:09;;;;;;;;;;;;;;;18.24;100.00;101638.05;1811531;79;20126;-72
2023/09/26 10:14:40;;;;;;;;;;;;;;;18.23;100.00;101634.56;1796587;79;20218;-70
2023/09/26 11:05:51;;;;;;;;;;;;;;;18.03;100.00;101632.30;1800751;79;20168;-69
2023/09/26 11:08:19;;;;;;;;;;;;;;;18.02;100.00;101631.93;1803217;79;20102;-69
2023/09/26 11:10:55;;;;;;;;;;;;;;;18.00;100.00;101625.43;1791729;79;20102;-71
2023/09/26 11:13:33;;;;;;;;;;;;;;;18.01;100.00;101624.96;1767956;81;20149;-69
2023/09/26 11:15:59;;;;;;;;;;;;;;;17.96;100.00;101626.59;1770349;81;20383;-69
2023/09/26 11:18:28;;;;;;;;;;;;;;;17.95;100.00;101630.17;1771436;81;20188;-69
2023/09/26 11:20:55;;;;;;;;;;;;;;;17.94;100.00;101628.95;1748550;81;20327;-71
2023/09/26 11:23:46;;;;;;;;;;;;;;;17.95;100.00;101621.41;1697056;84;20181;-69
2023/09/26 11:26:35;;;;;;;;;;;;;;;18.01;100.00;101621.01;1705927;84;20180;-72
2023/09/26 11:29:02;;;;;;;;;;;;;;;18.08;100.00;101615.73;1712755;84;20165;-71
2023/09/26 11:31:29;;;;;;;;;;;;;;;18.11;100.00;101617.34;1712584;84;20149;-72
2023/09/26 11:33:57;;;;;;;;;;;;;;;18.11;100.00;101615.55;1712584;83;20147;-70
2023/09/26 11:36:23;;;;;;;;;;;;;;;18.10;100.00;101616.96;1711584;84;20614;-69
2023/09/26 11:38:50;;;;;;;;;;;;;;;18.09;100.00;101612.16;1697705;84;20204;-71
2023/09/26 11:41:20;;;;;;;;;;;;;;;18.08;100.00;101613.09;1767247;81;20394;-71
2023/09/26 11:43:47;;;;;;;;;;;;;;;18.08;100.00;101617.05;1772493;81;20097;-71
2023/09/26 11:46:16;;;;;;;;;;;;;;;18.06;100.00;101614.13;1771700;81;20164;-72
2023/09/26 11:48:43;;;;;;;;;;;;;;;18.07;100.00;101607.45;1751596;81;20102;-71
2023/09/26 11:56:27;;;;;;;;;;;;;;;18.11;100.00;101608.11;1771245;81;20109;-72
2023/09/26 11:58:58;;;;;;;;;;;;;;;18.12;100.00;101601.42;1767830;81;20410;-76
2023/09/26 12:01:27;;;;;;;;;;;;;;;18.17;100.00;101599.81;1771878;80;20481;-71
2023/09/26 12:03:56;;;;;;;;;;;;;;;18.24;100.00;101600.66;1771317;81;20151;-71
2023/09/26 12:06:24;;;;;;;;;;;;;;;18.26;100.00;101593.50;1769766;81;20171;-72
2023/09/26 12:08:51;;;;;;;;;;;;;;;18.25;100.00;101597.08;1743492;81;20140;-72
2023/09/26 12:11:20;;;;;;;;;;;;;;;18.27;100.00;101593.88;1765832;80;20162;-71
2023/09/26 12:13:46;;;;;;;;;;;;;;;18.35;100.00;101597.34;1759414;81;20198;-71
2023/09/26 12:16:13;;;;;;;;;;;;;;;18.43;100.00;101596.36;1755699;81;20507;-69
2023/09/26 12:21:31;;;;;;;;;;;;;;;18.55;100.00;101591.62;1766454;81;20133;-73
2023/09/26 12:23:58;;;;;;;;;;;;;;;18.61;100.00;101599.65;1756842;81;20138;-70
2023/09/26 12:26:26;;;;;;;;;;;;;;;18.63;100.00;101590.69;1754766;81;20193;-69
2023/09/26 12:28:55;;;;;;;;;;;;;;;18.65;100.00;101594.55;1766543;80;20136;-72
2023/09/26 12:31:22;;;;;;;;;;;;;;;18.70;100.00;101596.89;1754959;81;20170;-71
2023/09/26 12:33:54;;;;;;;;;;;;;;;18.65;100.00;101596.72;1762541;81;20188;-72
2023/09/26 12:36:21;;;;;;;;;;;;;;;18.60;100.00;101594.00;1769284;81;20121;-71
2023/09/26 12:38:51;;;;;;;;;;;;;;;18.58;100.00;101598.02;1746312;81;20457;-75
2023/09/26 12:41:32;;;;;;;;;;;;;;;18.54;100.00;101595.67;1744260;81;20155;-73
2023/09/26 12:44:06;;;;;;;;;;;;;;;18.53;100.00;101591.34;1750289;81;20129;-73
2023/09/26 12:46:33;;;;;;;;;;;;;;;18.50;100.00;101588.91;1758430;81;20595;-72
2023/09/26 12:49:00;;;;;;;;;;;;;;;18.50;100.00;101584.47;1764021;81;20154;-72
2023/09/26 12:51:28;;;;;;;;;;;;;;;18.49;100.00;101590.69;1743270;82;20106;-71
2023/09/26 12:54:11;;;;;;;;;;;;;;;18.50;100.00;101591.06;1770133;81;20085;-72
2023/09/26 12:56:44;;;;;;;;;;;;;;;18.51;100.00;101582.20;1756168;81;20305;-72
2023/09/26 12:59:11;;;;;;;;;;;;;;;18.51;100.00;101582.20;1744080;81;20437;-72
2023/09/26 13:01:39;;;;;;;;;;;;;;;18.52;100.00;101581.27;1739253;83;20426;-71
2023/09/26 13:04:06;;;;;;;;;;;;;;;18.55;100.00;101584.18;1739946;82;20093;-72
2023/09/26 13:09:35;;;;;;;;;;;;;;;18.52;100.00;101584.38;1766640;81;20196;-73
2023/09/26 13:12:03;;;;;;;;;;;;;;;18.47;100.00;101590.42;1789475;80;20106;-72
2023/09/26 13:14:30;;;;;;;;;;;;;;;18.44;100.00;101588.82;1804362;79;20432;-73
